Grouse Creek, UT (84313)

5:42 AM MDT on July 24, 2014 (GMT -0600)
Wendover (KENV) Elev 4239 ft | 40.72 °N, 114.03 °W | Change Station

Current weather conditions updated 7 minutes ago

Clear
Clear
79 °F
Feels Like 79 °F
N
10
Wind Variable Wind from South

Today is forecast to be Much Cooler than yesterday.

Today
High -- | Low -- °F
--% Chance of Precip.
Yesterday
High -- | Low -- °F
Precip. -- in
6:22 AM 9:00 PM
Waning Crescent, 5% visible
Pressure 30.02 in
Visibility 10.0 miles
Clouds Clear
Dew Point 28 °F
Humidity 16%
Rainfall 0.00 in
Snow Depth Not available.
UV 0 out of 12
Pollen 6.80 out of 12
PM2.5 Good
Flu Activity Not available.
METAR KENV 241135Z 18009KT 10SM CLR 26/M02 A3002 RMK AO1

More Conditions Fewer Conditions

Pressure 30.02 in
Visibility 10.0 miles
Clouds Clear
Dew Point 28 °F
Humidity 16%
Rainfall 0.00 in
Snow Depth Not available.
UV 0 out of 12
Pollen 6.80 out of 12
PM2.5 Good
Flu Activity Not available.
METAR KENV 241135Z 18009KT 10SM CLR 26/M02 A3002 RMK AO1

More Conditions Fewer Conditions

10-Day Weather Forecast

Almanac

Astronomy

Jul. 24, 2014 Rise Set
Actual Time 6:22 AM MDT 9:00 PM MDT
Civil Twilight 5:50 AM MDT 9:32 PM MDT
Nautical Twilight 5:10 AM MDT 10:12 PM MDT
Astronomical Twilight 4:24 AM MDT 10:57 PM MDT
Moon 4:33 AM MDT 7:17 PM MDT
Length of Visible Light 15h 41m
Length of Day
14h 37m
Tomorrow will be 1m 51s shorter.
Waning Crescent, 5% of the Moon is Illuminated
Today
Waning Crescent
Jul 26
New
Aug 3
First Quarter
Aug 10
Full
Aug 17
Last Quarter

Today's Extremes

State Highs State Lows

Community

WunderPhotos

Upload Photos

1,736,978 photos uploaded!

Nearby

Air Quality

  Air Quality AQ Index Pollutant
Yesterday Good
OZONE
Yesterday Good
PM2.5
Current Good
PM2.5

Snow Depth

Station Depth Elevation
Ben Lomond Peak 0 in 8000 ft
Ben Lomond Trail 1 in 6000 ft
Little Bear 0 in 6550 ft
Dry Fork 0 in 7160 ft
Rocky Basin-Settlement 0 in 8900 ft

Earthquake Activity

City Distance Mag. Time & Date
No recent earthquake activity has been reported nearby.
Minimum magnitude displayed is 2.5.

Coastal Water Temperatures

Place Temperature
No Stations Reporting

Nearby Weather Stations

Station Location Temp. Heat Index Dew Point Humidity Wind Precip. Elev Updated Type
RAWS ROSEBUD UT, Grouse Creek, UT 73 °F 75 °F 28 °F 19% SSW  at  4 mph 0.00 in / hr 4986 ft 4:42 AM MDT MADIS
MesoWest GROUSE CREEK , Grouse Creek, UT 62 °F - 29 °F 29% NNW  at  6 mph 0.00 in / hr 5845 ft 4:00 AM MDT MADIS

Show More Stations Show Fewer Stations